Time;durP1;ratioP1;P1;durP2;ratioP2;P2;SDS_P1;SDS_P2;PMS_P1;PMS_P2;Temp;Humidity;BMP_temperature;BMP_pressure;BME280_temperature;BME280_humidity;BME280_pressure;Samples;Min_cycle;Max_cycle;Signal;HPM_P1;HPM_P2
2023/01/03 00:01:55;;;;;;;4.90;4.60;;;;;;;6.48;100.00;97966.38;5000814;28;20685;-71
2023/01/03 00:04:23;;;;;;;4.00;3.70;;;;;;;6.60;100.00;97958.31;5036201;28;20455;-69
2023/01/03 00:06:53;;;;;;;3.30;3.07;;;;;;;6.56;100.00;97976.19;5036011;28;20324;-69
2023/01/03 00:09:21;;;;;;;3.97;3.60;;;;;;;6.58;100.00;97976.06;5031853;28;20226;-71
2023/01/03 00:14:37;;;;;;;2.13;2.03;;;;;;;6.70;100.00;97974.13;5026455;28;20222;-70
2023/01/03 00:17:06;;;;;;;2.70;1.60;;;;;;;6.74;100.00;97973.69;5004415;28;20246;-68
2023/01/03 00:19:35;;;;;;;1.30;1.30;;;;;;;6.84;100.00;97971.03;5043855;28;20199;-69
2023/01/03 00:22:04;;;;;;;1.20;1.20;;;;;;;6.83;100.00;97968.56;5039523;28;20203;-71
2023/01/03 00:24:32;;;;;;;1.60;1.50;;;;;;;6.84;100.00;97968.41;5029424;28;20207;-70
2023/01/03 00:27:00;;;;;;;1.30;1.20;;;;;;;6.86;100.00;97955.94;5041054;28;20583;-71
2023/01/03 00:29:28;;;;;;;1.63;1.53;;;;;;;6.93;100.00;97950.94;5036904;28;20222;-70
2023/01/03 00:31:55;;;;;;;1.80;1.70;;;;;;;6.93;100.00;97943.84;5033198;28;20210;-70
2023/01/03 00:34:23;;;;;;;1.30;1.30;;;;;;;6.89;100.00;97936.38;5006921;28;20233;-70
2023/01/03 00:36:51;;;;;;;1.50;1.50;;;;;;;6.84;100.00;97930.72;5036460;28;20286;-72
2023/01/03 00:39:20;;;;;;;1.50;1.50;;;;;;;6.72;100.00;97944.03;5043889;28;20239;-71
2023/01/03 00:41:47;;;;;;;1.60;1.50;;;;;;;6.71;100.00;97955.53;5024971;28;20708;-72
2023/01/03 00:44:15;;;;;;;1.83;1.77;;;;;;;6.71;100.00;97966.06;5044870;28;20199;-71
2023/01/03 00:46:43;;;;;;;1.20;1.20;;;;;;;6.74;100.00;97970.25;5022635;28;20305;-71
2023/01/03 00:49:11;;;;;;;1.73;1.63;;;;;;;6.70;100.00;97976.75;5010571;28;20269;-70
2023/01/03 00:51:39;;;;;;;1.40;1.40;;;;;;;6.61;100.00;97981.06;5034878;28;20214;-70
2023/01/03 00:54:08;;;;;;;3.23;2.67;;;;;;;6.44;100.00;97993.94;5039323;28;20223;-71
2023/01/03 00:56:40;;;;;;;6.33;5.83;;;;;;;6.26;100.00;97988.53;5029044;28;20491;-69
2023/01/03 00:59:08;;;;;;;8.70;7.90;;;;;;;6.05;100.00;97986.81;5025987;28;20253;-70
2023/01/03 01:01:38;;;;;;;10.80;9.80;;;;;;;5.96;100.00;97990.22;5025696;28;20435;-71
2023/01/03 01:04:15;;;;;;;10.73;9.83;;;;;;;5.84;100.00;97986.88;5021071;28;20417;-70
2023/01/03 01:06:44;;;;;;;10.83;9.93;;;;;;;5.89;100.00;97992.56;5019248;28;20902;-69
2023/01/03 01:09:14;;;;;;;10.23;9.17;;;;;;;5.86;100.00;97982.31;5032892;28;20234;-69
2023/01/03 01:11:43;;;;;;;5.27;4.83;;;;;;;6.05;100.00;97975.44;5025179;28;20326;-70
2023/01/03 01:14:19;;;;;;;4.27;3.87;;;;;;;6.10;100.00;97964.53;5045721;28;20229;-70
2023/01/03 01:16:48;;;;;;;5.00;4.60;;;;;;;6.08;100.00;97972.56;5023040;28;20690;-68
2023/01/03 01:19:17;;;;;;;5.07;4.67;;;;;;;6.03;100.00;97974.75;5025449;28;20318;-69
2023/01/03 01:21:45;;;;;;;6.60;6.00;;;;;;;5.98;100.00;97987.44;5009081;28;20956;-70
2023/01/03 01:24:13;;;;;;;6.70;6.20;;;;;;;5.87;100.00;97978.72;5040151;28;20438;-69
2023/01/03 01:26:46;;;;;;;9.83;8.63;;;;;;;5.69;100.00;97972.44;5036328;28;20426;-72
2023/01/03 01:29:15;;;;;;;8.70;7.93;;;;;;;5.68;100.00;97974.22;5018376;28;20725;-71
2023/01/03 01:31:43;;;;;;;9.47;8.47;;;;;;;5.67;100.00;97993.59;5021836;28;20511;-68
2023/01/03 01:34:12;;;;;;;9.20;8.40;;;;;;;5.57;100.00;98006.69;5041089;28;20307;-69
2023/01/03 01:36:41;;;;;;;9.33;8.53;;;;;;;5.54;100.00;98019.28;4997993;28;20215;-71
2023/01/03 01:39:10;;;;;;;8.33;7.53;;;;;;;5.53;100.00;98018.44;4984512;28;20246;-70
2023/01/03 01:44:48;;;;;;;8.70;8.00;;;;;;;5.72;100.00;98041.34;5026674;28;20203;-71
2023/01/03 01:47:28;;;;;;;8.20;7.37;;;;;;;5.74;100.00;98039.44;5033274;28;20778;-71
2023/01/03 01:50:00;;;;;;;8.37;7.67;;;;;;;5.65;100.00;98043.66;5037676;28;20337;-70
2023/01/03 01:52:28;;;;;;;8.67;7.87;;;;;;;5.59;100.00;98043.38;4992193;28;20341;-71
2023/01/03 01:54:56;;;;;;;9.00;8.20;;;;;;;5.53;100.00;98055.25;5036341;28;20234;-70
2023/01/03 01:57:25;;;;;;;9.07;8.37;;;;;;;5.57;100.00;98055.81;5023873;28;20321;-71
2023/01/03 01:59:54;;;;;;;9.40;8.60;;;;;;;5.61;100.00;98054.59;5027264;28;20670;-70
2023/01/03 02:02:23;;;;;;;8.33;7.63;;;;;;;5.48;100.00;98053.00;5038468;28;20217;-71
2023/01/03 02:04:53;;;;;;;8.37;7.63;;;;;;;5.48;100.00;98060.88;5038364;28;20228;-70
2023/01/03 02:07:22;;;;;;;5.20;4.80;;;;;;;5.48;100.00;98071.41;5039880;28;20810;-71
2023/01/03 02:09:52;;;;;;;3.60;3.40;;;;;;;5.58;100.00;98070.63;5009294;28;20230;-70
2023/01/03 02:15:25;;;;;;;3.10;2.90;;;;;;;5.75;100.00;98054.25;5030305;28;20227;-72
2023/01/03 02:18:01;;;;;;;2.43;2.23;;;;;;;5.94;100.00;98047.41;5046154;28;20230;-72
2023/01/03 02:20:41;;;;;;;2.53;2.43;;;;;;;5.97;100.00;98043.66;5047141;28;20206;-71
2023/01/03 02:23:21;;;;;;;2.40;2.30;;;;;;;5.94;100.00;98042.16;5039662;28;20211;-71
2023/01/03 02:26:30;;;;;;;2.17;2.07;;;;;;;5.93;100.00;98049.19;5006954;28;20215;-70
2023/01/03 02:29:14;;;;;;;2.87;2.50;;;;;;;5.83;100.00;98055.38;5031324;28;20226;-72
2023/01/03 02:31:46;;;;;;;2.43;2.23;;;;;;;5.77;100.00;98057.56;5027217;28;20207;-69
2023/01/03 02:34:20;;;;;;;2.40;2.20;;;;;;;5.72;100.00;98054.50;5045223;28;20296;-70
2023/01/03 02:36:58;;;;;;;2.00;1.90;;;;;;;5.64;100.00;98059.59;5042537;28;20203;-71
2023/01/03 02:39:28;;;;;;;2.30;2.20;;;;;;;5.64;100.00;98060.41;5046116;28;20218;-72
2023/01/03 02:44:47;;;;;;;2.30;2.20;;;;;;;5.54;100.00;98061.34;5033587;28;20999;-71
2023/01/03 02:47:16;;;;;;;2.33;2.13;;;;;;;5.43;100.00;98065.69;5028290;28;20407;-71
2023/01/03 02:49:46;;;;;;;2.63;2.10;;;;;;;5.43;100.00;98078.84;5049824;28;20203;-71
2023/01/03 02:52:17;;;;;;;2.83;2.70;;;;;;;5.41;100.00;98062.38;5043259;28;20898;-71
2023/01/03 02:54:50;;;;;;;3.60;3.30;;;;;;;5.36;100.00;98065.41;5046813;28;20240;-71
2023/01/03 02:57:21;;;;;;;4.23;3.93;;;;;;;5.35;100.00;98061.09;5019659;28;20936;-70
2023/01/03 02:59:51;;;;;;;4.33;4.03;;;;;;;5.33;100.00;98063.03;5046418;28;20200;-72
2023/01/03 03:02:23;;;;;;;4.60;4.20;;;;;;;5.26;100.00;98061.03;5019323;28;20824;-71
2023/01/03 03:04:52;;;;;;;4.33;3.93;;;;;;;5.26;100.00;98069.75;5042031;28;20199;-71
2023/01/03 03:07:23;;;;;;;3.97;3.73;;;;;;;5.29;100.00;98074.75;5040652;28;20894;-70
2023/01/03 03:15:30;;;;;;;5.33;4.83;;;;;;;5.28;100.00;98073.06;5047183;28;20785;-72
2023/01/03 03:18:04;;;;;;;4.73;4.40;;;;;;;5.28;100.00;98067.81;5019423;28;20229;-72
2023/01/03 03:26:09;;;;;;;4.97;4.47;;;;;;;5.18;100.00;98091.41;5044087;28;20205;-70
2023/01/03 03:28:42;;;;;;;4.23;4.00;;;;;;;5.24;100.00;98094.50;5005126;28;20223;-71
2023/01/03 03:31:12;;;;;;;4.23;3.83;;;;;;;5.25;100.00;98090.91;5023995;28;21452;-71
2023/01/03 03:33:46;;;;;;;4.47;3.67;;;;;;;5.33;100.00;98076.19;5014791;28;20220;-71
2023/01/03 03:36:18;;;;;;;3.77;3.57;;;;;;;5.35;100.00;98084.75;5033300;28;20234;-71
2023/01/03 03:38:46;;;;;;;3.83;3.60;;;;;;;5.38;100.00;98075.78;5041010;28;20225;-72
2023/01/03 03:47:06;;;;;;;3.73;3.43;;;;;;;5.43;100.00;98086.72;5013582;28;20203;-70
2023/01/03 03:49:39;;;;;;;4.07;3.77;;;;;;;5.45;100.00;98084.81;5048610;28;20695;-71
2023/01/03 03:52:11;;;;;;;3.70;3.50;;;;;;;5.42;100.00;98089.50;5025692;28;20215;-71
2023/01/03 03:54:39;;;;;;;3.60;3.40;;;;;;;5.33;100.00;98091.09;5045974;28;20198;-71
2023/01/03 03:57:11;;;;;;;3.50;3.30;;;;;;;5.24;100.00;98094.50;5043580;28;20912;-70
2023/01/03 03:59:41;;;;;;;3.20;3.00;;;;;;;5.20;100.00;98088.66;5044007;28;20206;-70
2023/01/03 04:02:11;;;;;;;3.43;3.23;;;;;;;5.19;100.00;98090.47;5007603;28;20210;-71
2023/01/03 04:04:43;;;;;;;3.70;3.40;;;;;;;5.21;100.00;98083.28;5049731;28;20207;-72
2023/01/03 04:07:10;;;;;;;4.00;3.70;;;;;;;5.16;100.00;98085.47;5022678;28;20307;-73
2023/01/03 04:09:38;;;;;;;3.33;3.13;;;;;;;5.16;100.00;98085.47;5054363;28;20285;-70
2023/01/03 04:12:06;;;;;;;3.13;2.93;;;;;;;5.06;100.00;98089.78;5043501;28;20219;-71
2023/01/03 04:14:34;;;;;;;3.23;3.03;;;;;;;5.09;100.00;98094.78;5048759;28;20207;-71
2023/01/03 04:17:01;;;;;;;3.00;2.80;;;;;;;5.09;100.00;98092.16;4996879;28;20743;-72
2023/01/03 04:19:29;;;;;;;3.33;3.17;;;;;;;5.09;100.00;98088.72;5048271;28;20223;-72
2023/01/03 04:21:58;;;;;;;3.40;3.20;;;;;;;5.05;100.00;98102.09;5024835;28;20206;-69
2023/01/03 04:24:26;;;;;;;3.20;3.00;;;;;;;5.04;100.00;98097.81;5043289;28;20206;-71
2023/01/03 04:26:53;;;;;;;2.90;2.80;;;;;;;5.01;100.00;98098.06;5041123;28;20198;-69
2023/01/03 04:29:21;;;;;;;3.00;2.80;;;;;;;5.02;100.00;98104.13;5042341;28;20226;-71
2023/01/03 04:31:48;;;;;;;2.90;2.80;;;;;;;4.96;100.00;98110.75;5002650;28;20730;-70
2023/01/03 04:34:16;;;;;;;3.03;2.93;;;;;;;4.90;100.00;98104.19;5037323;28;20285;-69
2023/01/03 04:36:43;;;;;;;3.07;2.87;;;;;;;4.88;100.00;98107.88;5040940;28;20237;-70
2023/01/03 04:39:13;;;;;;;2.77;2.67;;;;;;;4.88;100.00;98110.50;5021223;28;20773;-70
2023/01/03 04:41:40;;;;;;;3.13;2.97;;;;;;;4.80;100.00;98105.91;5035550;28;20208;-71
2023/01/03 04:44:08;;;;;;;2.73;2.63;;;;;;;4.81;100.00;98110.19;5035969;28;20208;-71
2023/01/03 04:46:39;;;;;;;3.53;3.33;;;;;;;4.81;100.00;98118.06;5005815;28;20644;-72
2023/01/03 04:49:08;;;;;;;3.97;3.77;;;;;;;4.82;100.00;98119.75;5035120;28;20316;-71
2023/01/03 04:51:36;;;;;;;3.70;3.40;;;;;;;4.74;100.00;98130.03;5032747;28;20213;-70
2023/01/03 04:54:05;;;;;;;3.80;3.60;;;;;;;4.78;100.00;98129.66;5018625;28;20241;-66
2023/01/03 04:56:36;;;;;;;3.70;3.50;;;;;;;4.81;100.00;98122.47;5036277;28;20218;-71
2023/01/03 04:59:04;;;;;;;3.37;3.17;;;;;;;4.79;100.00;98125.25;5038101;28;20892;-71
2023/01/03 05:01:32;;;;;;;3.60;3.30;;;;;;;4.83;100.00;98126.66;4996766;28;20266;-72
2023/01/03 05:04:00;;;;;;;4.15;3.88;;;;;;;4.73;100.00;98128.34;5028997;28;20964;-69
2023/01/03 05:06:28;;;;;;;3.40;3.20;;;;;;;4.72;100.00;98132.78;5034328;28;20200;-69
2023/01/03 05:08:56;;;;;;;3.77;3.57;;;;;;;4.73;100.00;98136.22;5022689;28;20270;-69
2023/01/03 05:11:24;;;;;;;3.17;3.07;;;;;;;4.72;100.00;98135.41;5017088;28;20215;-68
2023/01/03 05:13:53;;;;;;;3.30;3.13;;;;;;;4.76;100.00;98138.63;5046574;28;20203;-69
2023/01/03 05:16:23;;;;;;;3.50;3.30;;;;;;;4.74;100.00;98137.91;4999462;28;20238;-66
2023/01/03 05:18:52;;;;;;;3.20;3.00;;;;;;;4.74;100.00;98138.72;5038811;28;20234;-69
2023/01/03 05:26:54;;;;;;;4.05;3.75;;;;;;;4.66;100.00;98146.41;5043543;28;20446;-69
2023/01/03 05:29:23;;;;;;;3.80;3.60;;;;;;;4.61;100.00;98149.38;5043860;28;20227;-69
2023/01/03 05:31:51;;;;;;;3.97;3.67;;;;;;;4.70;100.00;98160.09;5013855;28;20732;-71
2023/01/03 05:34:18;;;;;;;5.27;4.87;;;;;;;4.66;100.00;98156.91;5045284;28;20294;-69
2023/01/03 05:36:46;;;;;;;4.73;4.33;;;;;;;4.69;100.00;98151.41;5041399;28;20424;-70
2023/01/03 05:39:14;;;;;;;5.60;5.10;;;;;;;4.70;100.00;98149.59;5030129;28;20234;-69
2023/01/03 05:41:59;;;;;;;5.10;4.70;;;;;;;4.76;100.00;98152.56;5044730;28;20883;-71
2023/01/03 05:44:30;;;;;;;4.23;3.93;;;;;;;4.78;100.00;98160.34;5048081;28;20876;-69
2023/01/03 05:46:57;;;;;;;5.70;5.30;;;;;;;4.71;100.00;98165.25;5003949;28;20211;-71
2023/01/03 05:49:25;;;;;;;5.30;5.00;;;;;;;4.75;100.00;98163.22;5039856;28;20619;-70
2023/01/03 05:51:53;;;;;;;5.43;5.10;;;;;;;4.71;100.00;98170.50;5042436;28;20199;-68
2023/01/03 05:54:21;;;;;;;4.97;4.67;;;;;;;4.68;100.00;98164.63;4998276;28;20214;-70
2023/01/03 05:56:49;;;;;;;5.33;4.93;;;;;;;4.73;100.00;98184.31;5050366;28;20293;-71
2023/01/03 05:59:18;;;;;;;5.00;4.70;;;;;;;4.71;100.00;98183.63;5040593;28;20231;-69
2023/01/03 06:01:47;;;;;;;5.43;5.07;;;;;;;4.73;100.00;98186.09;5044143;28;20615;-72
2023/01/03 06:04:14;;;;;;;3.80;3.60;;;;;;;4.73;100.00;98181.69;5033637;28;20203;-71
2023/01/03 06:06:42;;;;;;;4.20;4.00;;;;;;;4.71;100.00;98186.25;5046240;28;20460;-72
2023/01/03 06:09:10;;;;;;;4.43;4.20;;;;;;;4.75;100.00;98182.41;5006501;28;20734;-70
2023/01/03 06:11:39;;;;;;;4.13;3.93;;;;;;;4.60;100.00;98184.47;5047720;28;20215;-69
2023/01/03 06:14:06;;;;;;;4.03;3.73;;;;;;;4.65;100.00;98176.22;5044450;28;20735;-69
2023/01/03 06:19:21;;;;;;;3.60;3.40;;;;;;;4.59;100.00;98182.78;5007556;28;20227;-68
2023/01/03 06:21:48;;;;;;;3.87;3.67;;;;;;;4.57;100.00;98178.63;5021938;28;20208;-69
2023/01/03 06:24:16;;;;;;;4.50;4.30;;;;;;;4.54;100.00;98179.69;4990447;28;20218;-69
2023/01/03 06:26:43;;;;;;;4.17;3.87;;;;;;;4.40;100.00;98179.97;5029869;28;20203;-69
2023/01/03 06:29:11;;;;;;;3.80;3.50;;;;;;;4.37;100.00;98193.31;5040420;28;20243;-70
2023/01/03 06:31:39;;;;;;;3.83;3.63;;;;;;;4.33;100.00;98187.47;5042012;28;20207;-71
2023/01/03 06:34:06;;;;;;;3.90;3.70;;;;;;;4.33;100.00;98177.78;5029984;28;20206;-71
2023/01/03 06:36:36;;;;;;;3.83;3.63;;;;;;;4.32;100.00;98185.81;5044091;28;20230;-69
2023/01/03 06:39:03;;;;;;;3.83;3.63;;;;;;;4.31;100.00;98189.38;4993194;28;21811;-71
2023/01/03 06:41:31;;;;;;;3.70;3.57;;;;;;;4.27;100.00;98190.56;5023208;28;20574;-69
2023/01/03 06:43:58;;;;;;;4.07;3.87;;;;;;;4.20;100.00;98196.31;5039958;28;20402;-68
2023/01/03 06:54:47;;;;;;;4.17;3.53;;;;;;;3.71;100.00;98207.88;4978468;28;20842;-70
2023/01/03 06:57:14;;;;;;;3.80;3.50;;;;;;;3.63;100.00;98208.47;5026065;28;20763;-71
2023/01/03 06:59:54;;;;;;;4.03;3.83;;;;;;;3.53;100.00;98205.69;5040034;28;20719;-69
2023/01/03 07:02:21;;;;;;;5.30;5.00;;;;;;;3.58;100.00;98213.19;5042144;28;20281;-68
2023/01/03 07:04:49;;;;;;;4.17;3.87;;;;;;;3.54;100.00;98211.75;5041716;28;20237;-68
2023/01/03 07:07:18;;;;;;;4.40;4.20;;;;;;;3.52;100.00;98217.13;5025823;28;20345;-70
2023/01/03 07:09:46;;;;;;;5.00;4.70;;;;;;;3.40;100.00;98234.59;5008346;28;20260;-70
2023/01/03 07:14:58;;;;;;;5.37;5.07;;;;;;;3.28;100.00;98236.31;5041289;28;20685;-71
2023/01/03 07:17:26;;;;;;;5.60;5.20;;;;;;;3.29;100.00;98237.97;5038613;28;20239;-69
2023/01/03 07:19:53;;;;;;;4.80;4.60;;;;;;;3.27;100.00;98234.66;5039322;28;20207;-70
2023/01/03 07:22:22;;;;;;;4.63;4.33;;;;;;;3.22;100.00;98243.78;5024432;28;20671;-69
2023/01/03 07:24:50;;;;;;;5.07;4.77;;;;;;;3.22;100.00;98236.75;5028275;28;20759;-70
2023/01/03 07:27:18;;;;;;;4.17;3.97;;;;;;;3.27;100.00;98239.06;5008442;28;20216;-68
2023/01/03 07:29:45;;;;;;;21.90;19.53;;;;;;;3.33;100.00;98244.66;5034509;28;20224;-70
2023/01/03 07:32:13;;;;;;;17.23;15.53;;;;;;;3.43;100.00;98252.69;5048685;28;20204;-69
2023/01/03 07:34:40;;;;;;;16.47;14.93;;;;;;;3.42;100.00;98261.50;5046906;28;20195;-72
2023/01/03 07:37:08;;;;;;;15.82;14.50;;;;;;;3.41;100.00;98269.47;5032539;28;20463;-72
2023/01/03 07:39:37;;;;;;;9.77;8.97;;;;;;;3.47;100.00;98267.25;5033759;28;20203;-68
2023/01/03 07:44:49;;;;;;;4.50;4.20;;;;;;;3.28;100.00;98274.78;5027944;28;20194;-69
2023/01/03 07:47:17;;;;;;;5.05;4.75;;;;;;;3.32;100.00;98273.63;5038066;28;21425;-68
2023/01/03 07:49:44;;;;;;;4.47;4.27;;;;;;;3.32;100.00;98276.22;5045043;28;20203;-69
2023/01/03 07:52:12;;;;;;;4.77;4.47;;;;;;;3.28;100.00;98277.41;5026793;28;20219;-69
2023/01/03 07:54:41;;;;;;;4.70;4.40;;;;;;;3.26;100.00;98279.31;5047580;28;20195;-69
2023/01/03 07:57:08;;;;;;;5.90;5.50;;;;;;;3.24;100.00;98276.78;5001830;28;20223;-70
2023/01/03 07:59:36;;;;;;;5.30;5.00;;;;;;;3.29;100.00;98281.69;5032435;28;20942;-71
2023/01/03 08:02:03;;;;;;;4.83;4.53;;;;;;;3.21;100.00;98279.63;5001717;28;20215;-71
2023/01/03 08:04:31;;;;;;;5.60;5.20;;;;;;;3.28;100.00;98277.41;5044479;28;20918;-73
2023/01/03 08:06:59;;;;;;;5.80;5.40;;;;;;;3.29;100.00;98277.28;5036732;28;20671;-68
2023/01/03 08:14:58;;;;;;;9.13;8.43;;;;;;;3.43;100.00;98283.31;5039667;28;20199;-69
2023/01/03 08:17:27;;;;;;;8.97;8.20;;;;;;;3.52;100.00;98287.03;4998786;28;20520;-71
2023/01/03 08:19:54;;;;;;;9.73;8.83;;;;;;;3.55;100.00;98297.28;5040746;28;20215;-71
2023/01/03 08:22:22;;;;;;;12.77;11.63;;;;;;;3.54;100.00;98295.63;5043944;28;20358;-70
2023/01/03 08:24:49;;;;;;;9.03;8.30;;;;;;;3.49;100.00;98301.22;5043828;28;20200;-70
2023/01/03 08:27:18;;;;;;;9.00;8.27;;;;;;;3.50;100.00;98304.66;5035957;28;20196;-68
2023/01/03 08:29:46;;;;;;;13.23;12.10;;;;;;;3.53;100.00;98296.56;5038920;28;20672;-70
2023/01/03 08:32:15;;;;;;;14.20;13.00;;;;;;;3.52;100.00;98301.00;5004492;28;20204;-69
2023/01/03 08:34:46;;;;;;;13.63;12.43;;;;;;;3.56;100.00;98297.19;5021962;28;20227;-70
2023/01/03 08:37:15;;;;;;;11.43;10.53;;;;;;;3.62;100.00;98301.97;5035545;28;20227;-69
2023/01/03 08:39:46;;;;;;;11.77;10.67;;;;;;;3.70;100.00;98303.19;5041703;28;20207;-69
2023/01/03 08:42:16;;;;;;;12.13;11.13;;;;;;;3.61;100.00;98302.09;5037857;28;20209;-71
2023/01/03 08:44:44;;;;;;;10.17;9.37;;;;;;;3.62;100.00;98306.41;5039987;28;20243;-70
2023/01/03 08:47:13;;;;;;;10.00;9.27;;;;;;;3.80;100.00;98306.84;5036756;28;21286;-71
2023/01/03 08:49:40;;;;;;;11.18;10.27;;;;;;;3.86;100.00;98301.13;4995929;28;21560;-68
2023/01/03 08:52:08;;;;;;;9.43;8.63;;;;;;;3.89;100.00;98314.00;5038721;28;20207;-71
2023/01/03 08:54:37;;;;;;;9.50;8.80;;;;;;;3.89;100.00;98318.41;5039835;28;20203;-68
2023/01/03 08:57:05;;;;;;;10.27;9.57;;;;;;;3.92;100.00;98318.19;5040098;28;20207;-70
2023/01/03 08:59:33;;;;;;;11.40;10.50;;;;;;;3.93;100.00;98311.97;5042580;28;20555;-69
2023/01/03 09:02:02;;;;;;;9.83;9.13;;;;;;;3.82;100.00;98315.44;5039912;28;20626;-69
2023/01/03 09:04:30;;;;;;;10.00;9.00;;;;;;;4.01;100.00;98322.75;5006329;28;20436;-69
2023/01/03 09:06:57;;;;;;;9.10;8.40;;;;;;;4.07;100.00;98325.88;5039445;28;20633;-71
2023/01/03 09:09:25;;;;;;;10.50;9.47;;;;;;;4.07;100.00;98331.13;5038781;28;20303;-69
2023/01/03 09:11:52;;;;;;;9.73;9.03;;;;;;;4.10;100.00;98334.34;5041655;28;20306;-69
2023/01/03 09:14:20;;;;;;;9.40;8.67;;;;;;;4.14;100.00;98332.31;5042911;28;20203;-71
2023/01/03 09:16:48;;;;;;;9.77;8.97;;;;;;;4.11;100.00;98328.13;5039733;28;20194;-71
2023/01/03 09:19:17;;;;;;;9.67;8.87;;;;;;;4.31;100.00;98328.44;5000995;28;20598;-71
2023/01/03 09:21:45;;;;;;;9.73;8.93;;;;;;;4.45;100.00;98327.41;5040727;28;20198;-70
2023/01/03 09:24:12;;;;;;;8.80;8.17;;;;;;;4.68;100.00;98328.25;5043704;28;20238;-70
2023/01/03 09:26:40;;;;;;;9.40;8.70;;;;;;;4.53;100.00;98332.88;5041860;28;20211;-68
2023/01/03 09:29:07;;;;;;;11.20;10.13;;;;;;;4.67;100.00;98338.84;5038114;28;20318;-69
2023/01/03 09:31:35;;;;;;;12.30;11.27;;;;;;;4.63;100.00;98344.34;5030695;28;20194;-69
2023/01/03 09:34:06;;;;;;;11.90;10.80;;;;;;;4.73;100.00;98330.50;5039415;28;20800;-70
2023/01/03 09:36:37;;;;;;;11.33;10.30;;;;;;;4.87;100.00;98340.78;4989228;28;20215;-69
2023/01/03 09:39:05;;;;;;;9.60;8.70;;;;;;;4.99;100.00;98341.63;5039373;28;20777;-71
2023/01/03 09:41:33;;;;;;;7.67;7.13;;;;;;;5.24;100.00;98338.88;5043869;28;20310;-69
2023/01/03 09:44:02;;;;;;;8.80;8.00;;;;;;;5.34;100.00;98332.75;5040893;28;20202;-70
2023/01/03 09:46:31;;;;;;;7.33;6.83;;;;;;;5.39;100.00;98337.63;5043344;28;20753;-68
2023/01/03 09:49:00;;;;;;;6.87;6.37;;;;;;;5.33;100.00;98332.88;5041975;28;20221;-72
2023/01/03 10:05:52;;;;;;;7.20;6.60;;;;;;;5.42;100.00;98321.63;5000837;28;20333;-68
2023/01/03 10:08:32;;;;;;;7.07;6.57;;;;;;;5.48;100.00;98315.84;5039728;28;20226;-70
2023/01/03 10:11:05;;;;;;;7.33;6.73;;;;;;;5.70;100.00;98308.06;4995319;28;20217;-71
2023/01/03 10:13:58;;;;;;;7.00;6.50;;;;;;;6.04;100.00;98311.41;5032654;28;20294;-70
2023/01/03 10:16:36;;;;;;;7.93;7.33;;;;;;;6.19;100.00;98303.16;5026994;28;20804;-70
2023/01/03 10:19:15;;;;;;;6.77;6.37;;;;;;;6.46;100.00;98309.72;5041600;28;20257;-69
2023/01/03 10:21:49;;;;;;;6.80;6.20;;;;;;;6.55;100.00;98308.09;5042468;28;20212;-71
2023/01/03 10:24:20;;;;;;;6.23;5.83;;;;;;;6.32;100.00;98292.44;5007065;28;20741;-70
2023/01/03 10:26:50;;;;;;;6.03;5.60;;;;;;;6.57;100.00;98293.84;5018293;28;20516;-70
2023/01/03 10:29:19;;;;;;;5.63;5.30;;;;;;;6.48;100.00;98282.31;5032713;28;20215;-69
2023/01/03 10:32:08;;;;;;;6.53;6.13;;;;;;;6.40;100.00;98290.00;5031826;28;20449;-70
2023/01/03 10:34:37;;;;;;;5.87;5.47;;;;;;;6.36;100.00;98278.91;5045817;28;20224;-71
2023/01/03 10:37:16;;;;;;;5.40;5.07;;;;;;;6.58;100.00;98281.50;5045175;28;20772;-68
2023/01/03 10:39:44;;;;;;;6.10;5.60;;;;;;;6.39;100.00;98275.16;5046608;28;20454;-68
2023/01/03 10:42:17;;;;;;;5.53;5.13;;;;;;;6.33;100.00;98283.59;5005817;28;20409;-71
2023/01/03 10:44:57;;;;;;;6.03;5.60;;;;;;;6.44;100.00;98267.75;5046147;28;20390;-70
2023/01/03 10:47:25;;;;;;;5.53;5.20;;;;;;;6.59;100.00;98270.84;5027722;28;20935;-69
2023/01/03 10:49:58;;;;;;;5.30;5.00;;;;;;;6.70;100.00;98269.91;5037272;28;20199;-70
2023/01/03 10:52:30;;;;;;;5.33;4.93;;;;;;;6.58;100.00;98260.44;5024055;28;20221;-72
2023/01/03 10:55:01;;;;;;;5.40;5.00;;;;;;;6.47;100.00;98262.22;5050405;28;20199;-70
2023/01/03 10:57:42;;;;;;;6.13;5.73;;;;;;;6.55;100.00;98272.06;4988478;28;20318;-70
2023/01/03 11:00:28;;;;;;;5.60;5.17;;;;;;;6.45;100.00;98273.81;5022127;28;20507;-71
2023/01/03 11:03:02;;;;;;;6.00;5.60;;;;;;;6.53;100.00;98262.66;5022228;28;20643;-69
2023/01/03 11:05:30;;;;;;;5.10;4.77;;;;;;;6.45;100.00;98269.41;5040454;28;20211;-71
2023/01/03 11:07:59;;;;;;;5.20;4.90;;;;;;;6.61;100.00;98270.72;5036297;28;20223;-69
2023/01/03 11:10:33;;;;;;;4.77;4.47;;;;;;;6.69;100.00;98270.06;5039009;28;20200;-70
2023/01/03 11:13:16;;;;;;;4.53;4.23;;;;;;;6.55;100.00;98266.78;4991963;28;20220;-68
2023/01/03 11:15:44;;;;;;;4.63;4.32;;;;;;;6.59;100.00;98264.75;5027056;28;20485;-68
2023/01/03 11:18:17;;;;;;;4.87;4.57;;;;;;;6.53;100.00;98268.72;5022283;28;21136;-67
2023/01/03 11:20:50;;;;;;;4.83;4.53;;;;;;;6.44;100.00;98262.47;5038693;28;20497;-70
2023/01/03 11:23:25;;;;;;;4.63;4.27;;;;;;;6.32;100.00;98252.97;5040264;28;20418;-69
2023/01/03 11:25:59;;;;;;;4.70;4.40;;;;;;;6.34;100.00;98256.31;5044325;28;20586;-68
2023/01/03 11:28:47;;;;;;;4.50;4.30;;;;;;;6.42;100.00;98258.28;5007649;28;20826;-68
2023/01/03 11:31:25;;;;;;;3.87;3.57;;;;;;;6.35;100.00;98257.97;5035866;28;20663;-68
2023/01/03 11:34:00;;;;;;;4.43;4.13;;;;;;;6.34;100.00;98246.63;5023391;28;20221;-70
2023/01/03 11:36:36;;;;;;;4.03;3.83;;;;;;;6.45;100.00;98239.59;5047642;28;20218;-69
2023/01/03 11:39:12;;;;;;;3.80;3.60;;;;;;;6.57;100.00;98246.44;5024746;28;20507;-70
2023/01/03 11:42:05;;;;;;;4.20;3.90;;;;;;;6.60;100.00;98245.34;5044006;28;20218;-69
2023/01/03 11:44:49;;;;;;;4.27;4.07;;;;;;;6.58;100.00;98249.91;5040084;28;20214;-72
2023/01/03 11:47:24;;;;;;;4.20;3.90;;;;;;;6.88;100.00;98251.69;5040936;28;20210;-70
2023/01/03 11:50:00;;;;;;;4.37;4.17;;;;;;;7.13;100.00;98244.25;5027426;28;20206;-69
2023/01/03 11:52:30;;;;;;;4.47;4.18;;;;;;;7.11;100.00;98240.94;5016745;28;21265;-68
2023/01/03 11:55:26;;;;;;;4.50;4.10;;;;;;;7.12;100.00;98239.13;5047803;28;20574;-69
2023/01/03 11:58:04;;;;;;;4.43;4.03;;;;;;;7.19;100.00;98227.03;4994473;28;20238;-70
2023/01/03 12:00:36;;;;;;;3.87;3.67;;;;;;;6.83;100.00;98235.44;5041055;28;20317;-69
2023/01/03 12:03:08;;;;;;;3.50;3.30;;;;;;;6.94;100.00;98227.41;5044786;28;20200;-71
2023/01/03 12:05:54;;;;;;;3.33;3.23;;;;;;;6.79;100.00;98236.69;5031026;28;20313;-71
2023/01/03 12:08:48;;;;;;;3.80;3.60;;;;;;;6.44;100.00;98235.31;5032690;28;20224;-69
2023/01/03 12:11:36;;;;;;;4.10;3.80;;;;;;;6.22;100.00;98235.34;5020162;28;20211;-69
2023/01/03 12:14:07;;;;;;;3.50;3.30;;;;;;;6.11;100.00;98248.56;5008738;28;20226;-72
2023/01/03 12:16:39;;;;;;;4.53;4.13;;;;;;;6.04;100.00;98245.63;5042919;28;20199;-69
2023/01/03 12:19:12;;;;;;;3.00;2.90;;;;;;;5.94;100.00;98242.06;4984192;28;20345;-70
2023/01/03 12:21:42;;;;;;;3.80;3.60;;;;;;;5.87;100.00;98239.09;5043457;28;20234;-69
2023/01/03 12:24:15;;;;;;;3.70;3.50;;;;;;;6.10;100.00;98243.44;5028538;28;20210;-69
2023/01/03 12:26:50;;;;;;;4.20;3.83;;;;;;;6.25;100.00;98238.66;5031677;28;20211;-70
2023/01/03 12:29:21;;;;;;;3.40;3.30;;;;;;;6.31;100.00;98235.50;5020831;28;20325;-70
2023/01/03 12:31:54;;;;;;;3.70;3.43;;;;;;;6.41;100.00;98233.75;5034843;28;20326;-70
2023/01/03 12:34:26;;;;;;;3.57;3.37;;;;;;;6.39;100.00;98230.41;4986594;28;20371;-71
2023/01/03 12:37:02;;;;;;;2.80;2.60;;;;;;;6.39;100.00;98229.59;5025960;28;20207;-70
2023/01/03 12:39:35;;;;;;;3.27;3.17;;;;;;;6.39;100.00;98226.97;5045417;28;20235;-70
2023/01/03 12:42:07;;;;;;;3.50;3.30;;;;;;;6.35;100.00;98226.38;5022113;28;21152;-71
2023/01/03 12:44:38;;;;;;;3.77;3.57;;;;;;;6.31;100.00;98227.63;5041592;28;20204;-71
2023/01/03 12:47:12;;;;;;;3.43;3.20;;;;;;;6.40;100.00;98233.91;5035158;28;20389;-70
2023/01/03 12:49:43;;;;;;;3.57;3.27;;;;;;;6.62;100.00;98224.97;4981231;28;20648;-69
2023/01/03 12:52:14;;;;;;;2.80;2.70;;;;;;;6.79;100.00;98229.59;5009111;28;20463;-69
2023/01/03 12:54:48;;;;;;;3.15;2.95;;;;;;;6.79;100.00;98231.41;5031692;28;20825;-67
2023/01/03 12:57:28;;;;;;;3.50;3.20;;;;;;;6.86;100.00;98222.00;5042705;28;20230;-69
2023/01/03 13:00:08;;;;;;;2.97;2.77;;;;;;;6.76;100.00;98229.88;5041860;28;20222;-66